createdAt,value
2018-12-17T00:00:27.895Z,44.08
2018-12-17T00:01:27.881Z,45.28
2018-12-17T00:02:27.868Z,44.08
2018-12-17T00:03:27.858Z,44.78
2018-12-17T00:04:27.881Z,44.58
2018-12-17T00:05:27.838Z,44.78
2018-12-17T00:06:27.837Z,44.88
2018-12-17T00:07:27.814Z,44.68
2018-12-17T00:08:31.996Z,44.88
2018-12-17T00:09:27.811Z,44.88
2018-12-17T00:10:27.794Z,44.88
2018-12-17T00:11:27.774Z,44.48
2018-12-17T00:12:27.770Z,44.88
2018-12-17T00:13:27.757Z,45.08
2018-12-17T00:14:27.754Z,44.98
2018-12-17T00:15:27.733Z,45.08
2018-12-17T00:16:27.738Z,45.28
2018-12-17T00:17:27.714Z,44.58
2018-12-17T00:18:27.694Z,44.88
2018-12-17T00:19:27.754Z,44.78
2018-12-17T00:20:27.672Z,44.48
2018-12-17T00:21:27.661Z,44.38
2018-12-17T00:22:27.667Z,44.78
2018-12-17T00:23:27.650Z,44.88
2018-12-17T00:24:27.629Z,44.78
2018-12-17T00:25:27.637Z,44.58
2018-12-17T00:26:27.615Z,45.08
2018-12-17T00:27:27.599Z,43.98
2018-12-17T00:28:27.598Z,44.28
2018-12-17T00:29:27.577Z,44.58
2018-12-17T00:30:27.585Z,44.48
2018-12-17T00:31:27.555Z,44.48
2018-12-17T00:32:27.547Z,44.88
2018-12-17T00:33:27.536Z,44.38
2018-12-17T00:34:27.530Z,44.86
2018-12-17T00:35:27.525Z,44.26
2018-12-17T00:36:27.505Z,44.48
2018-12-17T00:37:27.497Z,44.38
2018-12-17T00:38:27.482Z,44.88
2018-12-17T00:39:27.474Z,44.28
2018-12-17T00:40:27.485Z,43.88
2018-12-17T00:41:27.457Z,43.77
2018-12-17T00:42:27.432Z,43.76
2018-12-17T00:43:27.420Z,43.77
2018-12-17T00:44:27.410Z,43.77
2018-12-17T00:45:27.425Z,44.16
2018-12-17T00:46:27.398Z,43.77
2018-12-17T00:47:27.391Z,44.08
2018-12-17T00:48:27.369Z,43.76
2018-12-17T00:49:27.355Z,43.85
2018-12-17T00:50:27.370Z,43.88
2018-12-17T00:51:27.338Z,43.77
2018-12-17T00:52:27.337Z,44.88
2018-12-17T00:53:27.313Z,43.77
2018-12-17T00:54:27.306Z,43.88
2018-12-17T00:55:27.306Z,44.38
2018-12-17T00:56:27.283Z,44.35
2018-12-17T00:57:27.267Z,43.85
2018-12-17T00:58:27.279Z,43.77
2018-12-17T00:59:27.248Z,44.16
2018-12-17T01:00:27.251Z,44.48
2018-12-17T01:01:27.223Z,44.48
2018-12-17T01:02:27.215Z,43.98
2018-12-17T01:03:27.203Z,44.18
2018-12-17T01:04:27.212Z,44.18
2018-12-17T01:05:27.207Z,44.48
2018-12-17T01:06:27.169Z,44.28
2018-12-17T01:07:27.158Z,44.38
2018-12-17T01:08:27.157Z,44.38
2018-12-17T01:09:27.156Z,44.58
2018-12-17T01:10:27.148Z,44.68
2018-12-17T01:11:27.114Z,44.38
2018-12-17T01:12:27.117Z,44.78
2018-12-17T01:13:27.095Z,44.68
2018-12-17T01:14:27.084Z,44.38
2018-12-17T01:15:27.104Z,44.78
2018-12-17T01:16:27.059Z,44.78
2018-12-17T01:17:27.047Z,44.38
2018-12-17T01:18:27.052Z,44.78
2018-12-17T01:19:27.026Z,44.68
2018-12-17T01:20:27.033Z,43.88
2018-12-17T01:21:27.009Z,44.68
2018-12-17T01:22:26.992Z,43.88
2018-12-17T01:23:26.997Z,44.58
2018-12-17T01:24:26.973Z,43.77
2018-12-17T01:25:26.988Z,44.80
2018-12-17T01:26:26.949Z,44.38
2018-12-17T01:27:26.940Z,44.50
2018-12-17T01:28:26.930Z,44.20
2018-12-17T01:29:26.916Z,44.78
2018-12-17T01:30:26.921Z,45.28
2018-12-17T01:31:26.909Z,45.20
2018-12-17T01:32:26.883Z,45.60
2018-12-17T01:33:26.882Z,44.90
2018-12-17T01:34:26.861Z,45.00
2018-12-17T01:35:26.872Z,45.08
2018-12-17T01:36:26.847Z,45.30
2018-12-17T01:37:26.840Z,45.30
2018-12-17T01:38:26.837Z,45.20
2018-12-17T01:39:26.835Z,44.88
2018-12-17T01:40:27.269Z,45.00
2018-12-17T01:41:26.792Z,44.80
2018-12-17T01:42:26.773Z,45.08
2018-12-17T01:43:26.777Z,44.48
2018-12-17T01:44:26.752Z,44.68
2018-12-17T01:45:26.768Z,44.28
2018-12-17T01:46:27.384Z,44.58
2018-12-17T01:47:26.719Z,43.88
2018-12-17T01:48:26.837Z,43.98
2018-12-17T01:49:26.699Z,43.77
2018-12-17T01:50:26.727Z,43.77
2018-12-17T01:51:26.675Z,43.77
2018-12-17T01:52:26.671Z,44.28
2018-12-17T01:53:26.653Z,44.28
2018-12-17T01:54:26.644Z,44.08
2018-12-17T01:55:26.650Z,44.18
2018-12-17T01:56:26.630Z,44.18
2018-12-17T01:57:26.609Z,44.28
2018-12-17T01:58:29.316Z,43.98
2018-12-17T01:59:26.588Z,44.16
2018-12-17T02:00:26.631Z,44.18
2018-12-17T02:01:26.566Z,44.35
2018-12-17T02:02:26.572Z,43.98
2018-12-17T02:03:26.546Z,44.38
2018-12-17T02:04:26.573Z,44.35
2018-12-17T02:05:26.540Z,44.35
2018-12-17T02:06:26.514Z,44.16
2018-12-17T02:07:26.503Z,44.28
2018-12-17T02:08:26.527Z,44.26
2018-12-17T02:09:26.480Z,44.18
2018-12-17T02:10:26.483Z,44.38
2018-12-17T02:11:26.456Z,44.18
2018-12-17T02:12:26.445Z,44.18
2018-12-17T02:13:26.441Z,44.08
2018-12-17T02:14:26.441Z,44.18
2018-12-17T02:15:26.428Z,44.18
2018-12-17T02:16:26.405Z,43.98
2018-12-17T02:17:26.398Z,44.18
2018-12-17T02:18:26.383Z,44.08
2018-12-17T02:19:26.368Z,44.28
2018-12-17T02:20:26.392Z,44.28
2018-12-17T02:21:26.346Z,44.28
2018-12-17T02:22:26.335Z,44.18
2018-12-17T02:23:26.326Z,44.28
2018-12-17T02:24:26.364Z,44.08
2018-12-17T02:25:26.366Z,44.08
2018-12-17T02:26:26.298Z,44.18
2018-12-17T02:27:26.283Z,44.18
2018-12-17T02:28:26.274Z,44.18
2018-12-17T02:29:26.263Z,44.28
2018-12-17T02:30:26.261Z,43.98
2018-12-17T02:31:26.255Z,43.98
2018-12-17T02:32:26.228Z,44.18
2018-12-17T02:33:26.216Z,43.98
2018-12-17T02:34:26.214Z,43.88
2018-12-17T02:35:26.203Z,44.18
2018-12-17T02:36:26.217Z,43.88
2018-12-17T02:37:26.178Z,44.18
2018-12-17T02:38:26.167Z,44.08
2018-12-17T02:39:26.150Z,43.98
2018-12-17T02:40:26.138Z,44.18
2018-12-17T02:41:26.181Z,44.30
2018-12-17T02:42:26.139Z,44.18
2018-12-17T02:43:26.105Z,43.90
2018-12-17T02:44:26.095Z,44.40
2018-12-17T02:45:26.090Z,44.28
2018-12-17T02:46:26.096Z,44.08
2018-12-17T02:47:26.068Z,44.30
2018-12-17T02:48:26.075Z,44.30
2018-12-17T02:49:26.039Z,44.00
2018-12-17T02:50:26.032Z,44.40
2018-12-17T02:51:26.040Z,44.08
2018-12-17T02:52:26.008Z,44.08
2018-12-17T02:53:25.999Z,44.00
2018-12-17T02:54:26.009Z,43.98
2018-12-17T02:55:25.974Z,44.30
2018-12-17T02:56:25.986Z,44.18
2018-12-17T02:57:25.952Z,44.10
2018-12-17T02:58:25.942Z,44.00
2018-12-17T02:59:25.934Z,44.30
2018-12-17T03:00:25.941Z,44.20
2018-12-17T03:01:25.946Z,43.88
2018-12-17T03:02:25.896Z,43.88
2018-12-17T03:03:25.889Z,43.98
2018-12-17T03:04:25.885Z,44.38
2018-12-17T03:05:25.871Z,44.40
2018-12-17T03:06:25.877Z,44.08
2018-12-17T03:07:25.850Z,44.10
2018-12-17T03:08:25.831Z,44.20
2018-12-17T03:09:25.822Z,43.88
2018-12-17T03:10:25.827Z,44.10
2018-12-17T03:11:25.822Z,44.08
2018-12-17T03:12:25.789Z,44.28
2018-12-17T03:13:25.776Z,44.08
2018-12-17T03:14:25.782Z,44.10
2018-12-17T03:15:25.757Z,44.18
2018-12-17T03:16:25.762Z,43.98
2018-12-17T03:17:25.744Z,43.68
2018-12-17T03:18:25.727Z,43.77
2018-12-17T03:19:25.712Z,43.68
2018-12-17T03:20:25.716Z,43.88
2018-12-17T03:21:25.707Z,43.88
2018-12-17T03:22:25.682Z,43.77
2018-12-17T03:23:25.674Z,43.68
2018-12-17T03:24:25.735Z,44.08
2018-12-17T03:25:25.645Z,43.77
2018-12-17T03:26:25.659Z,43.77
2018-12-17T03:27:25.626Z,43.48
2018-12-17T03:28:25.619Z,43.77
2018-12-17T03:29:25.626Z,43.48
2018-12-17T03:30:25.598Z,43.77
2018-12-17T03:31:25.597Z,43.58
2018-12-17T03:32:25.578Z,43.68
2018-12-17T03:33:25.558Z,43.58
2018-12-17T03:34:25.552Z,43.48
2018-12-17T03:35:25.552Z,43.58
2018-12-17T03:36:25.539Z,43.68
2018-12-17T03:37:25.544Z,43.68
2018-12-17T03:38:25.523Z,43.58
2018-12-17T03:39:25.500Z,43.68
2018-12-17T03:40:25.489Z,43.48
2018-12-17T03:41:25.496Z,43.48
2018-12-17T03:42:25.461Z,43.48
2018-12-17T03:43:25.457Z,43.38
2018-12-17T03:44:25.450Z,43.77
2018-12-17T03:45:25.439Z,43.77
2018-12-17T03:46:25.433Z,43.77
2018-12-17T03:47:25.405Z,43.88
2018-12-17T03:48:25.396Z,43.48
2018-12-17T03:49:25.383Z,44.08
2018-12-17T03:50:25.381Z,43.77
2018-12-17T03:51:25.389Z,43.77
2018-12-17T03:52:25.363Z,44.08
2018-12-17T03:53:25.347Z,43.80
2018-12-17T03:54:25.331Z,43.30
2018-12-17T03:55:25.325Z,43.40
2018-12-17T03:56:25.337Z,43.50
2018-12-17T03:57:25.306Z,43.50
2018-12-17T03:58:25.292Z,43.19
2018-12-17T03:59:25.273Z,43.40
2018-12-17T04:00:25.263Z,43.19
2018-12-17T04:01:25.267Z,42.69
2018-12-17T04:02:25.250Z,42.99
2018-12-17T04:03:25.236Z,42.90
2018-12-17T04:04:25.229Z,42.80
2018-12-17T04:05:25.208Z,42.40
2018-12-17T04:06:25.216Z,42.69
2018-12-17T04:07:25.185Z,42.90
2018-12-17T04:08:25.184Z,42.90
2018-12-17T04:09:25.177Z,42.80
2018-12-17T04:10:25.152Z,42.69
2018-12-17T04:11:25.159Z,42.80
2018-12-17T04:12:25.132Z,42.80
2018-12-17T04:13:25.123Z,42.69
2018-12-17T04:14:25.122Z,42.69
2018-12-17T04:15:25.103Z,42.69
2018-12-17T04:16:25.106Z,42.69
2018-12-17T04:17:25.076Z,42.69
2018-12-17T04:18:25.066Z,42.69
2018-12-17T04:19:25.060Z,42.69
2018-12-17T04:20:25.052Z,42.69
2018-12-17T04:21:25.048Z,42.69
2018-12-17T04:22:25.020Z,42.99
2018-12-17T04:23:25.016Z,42.69
2018-12-17T04:24:25.000Z,42.69
2018-12-17T04:25:24.991Z,42.69
2018-12-17T04:26:25.021Z,42.69
2018-12-17T04:27:24.984Z,42.99
2018-12-17T04:28:24.958Z,42.69
2018-12-17T04:29:24.954Z,42.69
2018-12-17T04:30:24.933Z,42.69
2018-12-17T04:31:24.938Z,42.69
2018-12-17T04:32:24.924Z,42.69
2018-12-17T04:33:24.910Z,42.99
2018-12-17T04:34:24.888Z,42.80
2018-12-17T04:35:24.881Z,42.99
2018-12-17T04:36:24.884Z,42.69
2018-12-17T04:37:24.863Z,42.69
2018-12-17T04:38:24.868Z,42.99
2018-12-17T04:39:24.833Z,42.80
2018-12-17T04:40:24.829Z,42.90
2018-12-17T04:41:24.835Z,42.90
2018-12-17T04:42:24.801Z,42.60
2018-12-17T04:43:24.797Z,42.90
2018-12-17T04:44:24.795Z,42.90
2018-12-17T04:45:24.790Z,42.80
2018-12-17T04:46:24.805Z,42.69
2018-12-17T04:47:24.749Z,42.80
2018-12-17T04:48:24.737Z,42.90
2018-12-17T04:49:24.734Z,42.90
2018-12-17T04:50:24.719Z,42.69
2018-12-17T04:51:24.727Z,42.90
2018-12-17T04:52:24.781Z,42.90
2018-12-17T04:53:24.680Z,42.80
2018-12-17T04:54:24.670Z,42.40
2018-12-17T04:55:24.659Z,42.80
2018-12-17T04:56:24.682Z,42.90
2018-12-17T04:57:24.643Z,42.99
2018-12-17T04:58:24.641Z,42.90
2018-12-17T04:59:24.621Z,42.90
2018-12-17T05:00:24.605Z,42.90
2018-12-17T05:01:24.617Z,42.40
2018-12-17T05:02:24.592Z,42.69
2018-12-17T05:03:24.573Z,42.69
2018-12-17T05:04:24.568Z,42.40
2018-12-17T05:05:24.548Z,42.49
2018-12-17T05:06:24.561Z,42.99
2018-12-17T05:07:24.539Z,42.99
2018-12-17T05:08:24.517Z,43.10
2018-12-17T05:09:24.507Z,43.10
2018-12-17T05:10:24.508Z,43.19
2018-12-17T05:11:24.511Z,42.80
2018-12-17T05:12:24.480Z,43.10
2018-12-17T05:13:24.468Z,43.50
2018-12-17T05:14:24.466Z,44.10
2018-12-17T05:15:24.447Z,43.80
2018-12-17T05:16:24.460Z,43.90
2018-12-17T05:17:24.425Z,43.90
2018-12-17T05:18:24.415Z,43.90
2018-12-17T05:19:24.419Z,43.80
2018-12-17T05:20:24.389Z,43.90
2018-12-17T05:21:24.389Z,44.00
2018-12-17T05:22:24.363Z,43.88
2018-12-17T05:23:24.358Z,44.10
2018-12-17T05:24:24.342Z,44.10
2018-12-17T05:25:24.351Z,43.90
2018-12-17T05:26:24.336Z,44.10
2018-12-17T05:27:24.309Z,44.10
2018-12-17T05:28:24.298Z,43.90
2018-12-17T05:29:24.292Z,43.60
2018-12-17T05:30:24.294Z,43.50
2018-12-17T05:31:24.322Z,44.00
2018-12-17T05:32:24.255Z,44.10
2018-12-17T05:33:24.251Z,44.10
2018-12-17T05:34:24.231Z,43.90
2018-12-17T05:35:24.229Z,43.80
2018-12-17T05:36:24.235Z,43.70
2018-12-17T05:37:24.223Z,43.80
2018-12-17T05:38:24.188Z,43.80
2018-12-17T05:39:24.176Z,44.00
2018-12-17T05:40:24.172Z,44.00
2018-12-17T05:41:24.189Z,43.70
2018-12-17T05:42:24.185Z,43.70
2018-12-17T05:43:24.152Z,43.60
2018-12-17T05:44:24.125Z,43.60
2018-12-17T05:45:24.111Z,43.50
2018-12-17T05:46:24.102Z,43.60
2018-12-17T05:47:24.110Z,43.19
2018-12-17T05:48:24.102Z,43.10
2018-12-17T05:49:24.068Z,42.90
2018-12-17T05:50:24.058Z,42.90
2018-12-17T05:51:24.046Z,42.99
2018-12-17T05:52:24.065Z,42.99
2018-12-17T05:53:24.035Z,43.19
2018-12-17T05:54:24.030Z,43.19
2018-12-17T05:55:24.014Z,43.19
2018-12-17T05:56:23.992Z,43.19
2018-12-17T05:57:23.997Z,43.52
2018-12-17T05:58:23.969Z,43.82
2018-12-17T05:59:28.548Z,43.32
2018-12-17T06:00:23.963Z,43.72
2018-12-17T06:01:23.944Z,43.62
2018-12-17T06:02:23.942Z,43.52
2018-12-17T06:03:23.913Z,43.52
2018-12-17T06:04:23.911Z,43.52
2018-12-17T06:05:23.899Z,44.02
2018-12-17T06:06:23.894Z,44.12
2018-12-17T06:07:23.902Z,43.82
2018-12-17T06:08:23.864Z,43.82
2018-12-17T06:09:23.847Z,44.52
2018-12-17T06:10:23.849Z,44.22
2018-12-17T06:11:23.837Z,44.12
2018-12-17T06:12:23.837Z,44.12
2018-12-17T06:13:23.811Z,44.12
2018-12-17T06:14:23.800Z,43.92
2018-12-17T06:15:23.791Z,43.92
2018-12-17T06:16:23.772Z,43.92
2018-12-17T06:17:23.776Z,43.92
2018-12-17T06:18:23.752Z,44.12
2018-12-17T06:19:23.751Z,43.92
2018-12-17T06:20:23.728Z,44.12
2018-12-17T06:21:23.716Z,43.92
2018-12-17T06:22:23.720Z,44.22
2018-12-17T06:23:23.699Z,44.22
2018-12-17T06:24:23.694Z,44.00
2018-12-17T06:25:23.686Z,44.10
2018-12-17T06:26:23.671Z,44.10
2018-12-17T06:27:23.709Z,44.50
2018-12-17T06:28:23.643Z,43.70
2018-12-17T06:29:23.627Z,43.80
2018-12-17T06:30:23.617Z,44.00
2018-12-17T06:31:23.618Z,44.00
2018-12-17T06:32:23.612Z,43.80
2018-12-17T06:33:23.595Z,43.70
2018-12-17T06:34:23.581Z,43.50
2018-12-17T06:35:23.563Z,43.80
2018-12-17T06:36:23.558Z,43.80
2018-12-17T06:37:23.565Z,43.40
2018-12-17T06:38:23.532Z,43.70
2018-12-17T06:39:23.520Z,43.70
2018-12-17T06:40:23.507Z,43.48
2018-12-17T06:41:23.511Z,43.60
2018-12-17T06:42:23.501Z,43.60
2018-12-17T06:43:23.487Z,43.50
2018-12-17T06:44:23.469Z,43.70
2018-12-17T06:45:23.454Z,43.68
2018-12-17T06:46:23.445Z,43.48
2018-12-17T06:47:23.461Z,43.18
2018-12-17T06:48:23.428Z,43.60
2018-12-17T06:49:23.417Z,43.40
2018-12-17T06:50:23.399Z,43.19
2018-12-17T06:51:23.389Z,43.30
2018-12-17T06:52:23.394Z,43.40
2018-12-17T06:53:23.372Z,43.27
2018-12-17T06:54:23.354Z,43.18
2018-12-17T06:55:23.357Z,43.18
2018-12-17T06:56:23.334Z,43.19
2018-12-17T06:57:23.343Z,43.30
2018-12-17T06:58:23.319Z,43.38
2018-12-17T06:59:23.304Z,43.60
2018-12-17T07:00:23.296Z,43.27
2018-12-17T07:01:23.292Z,43.30
2018-12-17T07:02:23.288Z,43.38
2018-12-17T07:03:23.263Z,43.40
2018-12-17T07:04:23.264Z,43.19
2018-12-17T07:05:23.235Z,43.40
2018-12-17T07:06:23.229Z,43.30
2018-12-17T07:07:23.239Z,43.30
2018-12-17T07:08:23.208Z,42.80
2018-12-17T07:09:23.203Z,42.99
2018-12-17T07:10:23.179Z,42.90
2018-12-17T07:11:23.168Z,42.99
2018-12-17T07:12:23.184Z,42.90
2018-12-17T07:13:23.152Z,42.80
2018-12-17T07:14:23.138Z,42.99
2018-12-17T07:15:23.127Z,42.90
2018-12-17T07:16:23.115Z,42.90
2018-12-17T07:17:23.119Z,42.69
2018-12-17T07:18:23.102Z,42.80
2018-12-17T07:19:23.079Z,42.19
2018-12-17T07:20:23.075Z,42.40
2018-12-17T07:21:23.066Z,41.99
2018-12-17T07:22:23.079Z,41.89
2018-12-17T07:23:23.036Z,41.79
2018-12-17T07:24:23.033Z,41.60
2018-12-17T07:25:23.025Z,41.99
2018-12-17T07:26:23.006Z,41.60
2018-12-17T07:27:23.010Z,41.60
2018-12-17T07:28:22.981Z,41.39
2018-12-17T07:29:22.970Z,41.69
2018-12-17T07:30:22.977Z,41.60
2018-12-17T07:31:22.955Z,41.60
2018-12-17T07:32:22.953Z,41.69
2018-12-17T07:33:22.927Z,41.79
2018-12-17T07:34:22.923Z,41.69
2018-12-17T07:35:22.905Z,41.69
2018-12-17T07:36:22.911Z,41.60
2018-12-17T07:37:22.905Z,41.49
2018-12-17T07:38:22.875Z,41.69
2018-12-17T07:39:22.863Z,41.60
2018-12-17T07:40:22.852Z,41.99
2018-12-17T07:41:22.838Z,41.60
2018-12-17T07:42:22.858Z,41.60
2018-12-17T07:43:22.819Z,41.69
2018-12-17T07:44:22.819Z,42.18
2018-12-17T07:45:22.798Z,41.89
2018-12-17T07:46:22.784Z,41.60
2018-12-17T07:47:22.795Z,41.57
2018-12-17T07:48:22.775Z,41.69
2018-12-17T07:49:22.750Z,41.57
2018-12-17T07:50:22.748Z,41.69
2018-12-17T07:51:22.731Z,41.67
2018-12-17T07:52:22.734Z,41.67
2018-12-17T07:53:22.710Z,41.57
2018-12-17T07:54:22.717Z,41.67
2018-12-17T07:55:22.691Z,41.57
2018-12-17T07:56:22.674Z,41.67
2018-12-17T07:57:22.721Z,41.57
2018-12-17T07:58:22.664Z,41.57
2018-12-17T07:59:22.642Z,41.67
2018-12-17T08:00:22.647Z,41.67
2018-12-17T08:01:22.619Z,41.88
2018-12-17T08:02:22.608Z,41.67
2018-12-17T08:03:22.624Z,41.57
2018-12-17T08:04:22.650Z,41.38
2018-12-17T08:05:22.577Z,41.67
2018-12-17T08:06:22.575Z,41.67
2018-12-17T08:07:22.560Z,41.57
2018-12-17T08:08:22.565Z,41.47
2018-12-17T08:09:22.533Z,41.67
2018-12-17T08:10:22.528Z,41.67
2018-12-17T08:11:22.510Z,41.57
2018-12-17T08:12:22.509Z,41.67
2018-12-17T08:13:22.507Z,41.67
2018-12-17T08:14:22.479Z,41.77
2018-12-17T08:15:22.488Z,41.67
2018-12-17T08:16:22.455Z,41.47
2018-12-17T08:17:22.446Z,41.77
2018-12-17T08:18:22.465Z,41.67
2018-12-17T08:19:22.426Z,41.67
2018-12-17T08:20:22.419Z,41.67
2018-12-17T08:21:22.403Z,41.55
2018-12-17T08:22:22.389Z,41.55
2018-12-17T08:23:22.396Z,41.85
2018-12-17T08:24:22.381Z,41.46
2018-12-17T08:25:22.357Z,41.66
2018-12-17T08:26:22.349Z,41.55
2018-12-17T08:27:22.336Z,41.66
2018-12-17T08:28:22.342Z,41.66
2018-12-17T08:29:22.314Z,41.46
2018-12-17T08:30:22.319Z,41.57
2018-12-17T08:31:22.293Z,41.75
2018-12-17T08:32:22.281Z,41.67
2018-12-17T08:33:22.291Z,41.55
2018-12-17T08:34:22.258Z,41.57
2018-12-17T08:35:22.248Z,41.55
2018-12-17T08:36:22.266Z,41.55
2018-12-17T08:37:22.226Z,41.77
2018-12-17T08:38:22.239Z,41.57
2018-12-17T08:39:22.204Z,41.66
2018-12-17T08:40:22.198Z,42.16
2018-12-17T08:41:22.182Z,41.77
2018-12-17T08:42:22.183Z,41.75
2018-12-17T08:43:22.182Z,41.25
2018-12-17T08:44:22.151Z,41.55
2018-12-17T08:45:22.148Z,41.46
2018-12-17T08:46:22.129Z,41.66
2018-12-17T08:47:22.115Z,41.55
2018-12-17T08:48:22.138Z,41.66
2018-12-17T08:49:22.093Z,41.66
2018-12-17T08:50:22.086Z,41.55
2018-12-17T08:51:22.072Z,41.66
2018-12-17T08:52:22.067Z,41.46
2018-12-17T08:53:22.076Z,41.77
2018-12-17T08:54:22.073Z,41.96
2018-12-17T08:55:22.028Z,41.88
2018-12-17T08:56:22.017Z,41.96
2018-12-17T08:57:22.012Z,41.77
2018-12-17T08:58:22.016Z,42.27
2018-12-17T08:59:21.987Z,42.18
2018-12-17T09:00:21.991Z,42.27
2018-12-17T09:01:21.969Z,42.38
2018-12-17T09:02:21.952Z,42.68
2018-12-17T09:03:21.963Z,42.07
2018-12-17T09:04:21.932Z,42.66
2018-12-17T09:05:21.925Z,42.38
2018-12-17T09:06:21.923Z,42.68
2018-12-17T09:07:21.898Z,42.68
2018-12-17T09:08:21.901Z,42.68
2018-12-17T09:09:21.883Z,42.66
2018-12-17T09:10:21.864Z,42.66
2018-12-17T09:11:21.855Z,42.55
2018-12-17T09:12:21.852Z,42.57
2018-12-17T09:13:21.848Z,42.46
2018-12-17T09:14:21.821Z,42.25
2018-12-17T09:15:21.811Z,42.25
2018-12-17T09:16:21.806Z,42.46
2018-12-17T09:17:21.796Z,42.46
2018-12-17T09:18:21.814Z,41.85
2018-12-17T09:19:21.766Z,41.85
2018-12-17T09:20:21.755Z,41.55
2018-12-17T09:21:21.749Z,41.46
2018-12-17T09:22:21.742Z,41.63
2018-12-17T09:23:21.748Z,41.66
2018-12-17T09:24:21.726Z,41.75
2018-12-17T09:25:21.701Z,41.33
2018-12-17T09:26:21.697Z,41.74
2018-12-17T09:27:21.687Z,41.93
2018-12-17T09:28:21.702Z,42.13
2018-12-17T09:29:21.658Z,42.13
2018-12-17T09:30:21.652Z,42.03
2018-12-17T09:31:21.643Z,42.03
2018-12-17T09:32:21.626Z,41.43
2018-12-17T09:33:21.635Z,41.83
2018-12-17T09:34:21.607Z,41.43
2018-12-17T09:35:21.591Z,41.33
2018-12-17T09:36:21.594Z,41.93
2018-12-17T09:37:21.577Z,41.63
2018-12-17T09:38:21.578Z,41.33
2018-12-17T09:39:21.555Z,41.13
2018-12-17T09:40:21.542Z,41.63
2018-12-17T09:41:21.532Z,41.03
2018-12-17T09:42:21.529Z,41.03
2018-12-17T09:43:21.521Z,41.13
2018-12-17T09:44:21.497Z,41.03
2018-12-17T09:45:21.483Z,41.13
2018-12-17T09:46:21.477Z,41.03
2018-12-17T09:47:21.463Z,40.93
2018-12-17T09:48:21.482Z,41.24
2018-12-17T09:49:21.445Z,41.11
2018-12-17T09:50:21.436Z,41.03
2018-12-17T09:51:21.425Z,41.21
2018-12-17T09:52:21.422Z,41.03
2018-12-17T09:53:21.428Z,41.03
2018-12-17T09:54:21.398Z,41.52
2018-12-17T09:55:21.383Z,41.24
2018-12-17T09:56:21.371Z,41.33
2018-12-17T09:57:21.360Z,41.71
2018-12-17T09:58:21.366Z,41.31
2018-12-17T09:59:21.339Z,41.61
2018-12-17T10:00:25.360Z,41.63
2018-12-17T10:01:21.315Z,41.43
2018-12-17T10:02:21.309Z,41.71
2018-12-17T10:03:21.303Z,41.63
2018-12-17T10:04:21.290Z,42.13
2018-12-17T10:05:21.274Z,42.13
2018-12-17T10:06:21.261Z,42.13
2018-12-17T10:07:21.244Z,41.93
2018-12-17T10:08:21.551Z,41.63
2018-12-17T10:09:21.238Z,41.63
2018-12-17T10:10:21.216Z,41.63
2018-12-17T10:11:21.237Z,41.74
2018-12-17T10:12:21.193Z,41.74
2018-12-17T10:13:21.182Z,41.83
2018-12-17T10:14:21.196Z,41.74
2018-12-17T10:15:21.168Z,41.53
2018-12-17T10:16:21.169Z,41.33
2018-12-17T10:17:21.139Z,41.53
2018-12-17T10:18:21.135Z,41.53
2018-12-17T10:19:21.135Z,41.53
2018-12-17T10:20:21.108Z,41.74
2018-12-17T10:21:21.104Z,41.53
2018-12-17T10:22:21.086Z,41.61
2018-12-17T10:23:21.073Z,41.52
2018-12-17T10:24:21.087Z,41.53
2018-12-17T10:25:21.058Z,41.53
2018-12-17T10:26:21.049Z,41.63
2018-12-17T10:27:21.033Z,41.43
2018-12-17T10:28:21.021Z,41.63
2018-12-17T10:29:21.025Z,41.53
2018-12-17T10:30:21.008Z,41.53
2018-12-17T10:31:20.987Z,41.61
2018-12-17T10:32:20.981Z,41.63
2018-12-17T10:33:20.982Z,41.63
2018-12-17T10:34:20.983Z,41.52
2018-12-17T10:35:20.948Z,41.53
2018-12-17T10:36:20.941Z,41.53
2018-12-17T10:37:20.928Z,41.43
2018-12-17T10:38:20.919Z,41.74
2018-12-17T10:39:20.924Z,41.74
2018-12-17T10:40:20.893Z,41.53
2018-12-17T10:41:20.879Z,41.71
2018-12-17T10:42:20.875Z,41.71
2018-12-17T10:43:20.877Z,41.83
2018-12-17T10:44:20.867Z,41.71
2018-12-17T10:45:20.846Z,41.71
2018-12-17T10:46:20.827Z,41.63
2018-12-17T10:47:20.821Z,41.71
2018-12-17T10:48:20.804Z,42.02
2018-12-17T10:49:20.821Z,41.71
2018-12-17T10:50:20.791Z,41.71
2018-12-17T10:51:20.784Z,41.82
2018-12-17T10:52:20.764Z,41.61
2018-12-17T10:53:20.750Z,41.61
2018-12-17T10:54:20.800Z,41.61
2018-12-17T10:55:20.735Z,42.11
2018-12-17T10:56:20.719Z,42.11
2018-12-17T10:57:20.707Z,41.74
2018-12-17T10:58:20.697Z,41.61
2018-12-17T10:59:20.686Z,41.74
2018-12-17T11:00:20.694Z,41.82
2018-12-17T11:01:20.673Z,41.52
2018-12-17T11:02:20.657Z,41.71
2018-12-17T11:03:20.642Z,42.11
2018-12-17T11:04:20.631Z,41.61
2018-12-17T11:05:20.635Z,41.61
2018-12-17T11:06:20.611Z,42.11
2018-12-17T11:07:20.605Z,42.11
2018-12-17T11:08:20.589Z,42.02
2018-12-17T11:09:20.578Z,42.02
2018-12-17T11:10:20.583Z,41.61
2018-12-17T11:11:20.563Z,41.82
2018-12-17T11:12:20.551Z,41.91
2018-12-17T11:13:20.549Z,41.61
2018-12-17T11:14:20.536Z,41.21
2018-12-17T11:15:20.529Z,41.61
2018-12-17T11:16:20.502Z,41.11
2018-12-17T11:17:20.492Z,40.91
2018-12-17T11:18:20.479Z,41.11
2018-12-17T11:19:20.484Z,41.11
2018-12-17T11:20:20.476Z,41.19
2018-12-17T11:21:20.448Z,41.31
2018-12-17T11:22:20.438Z,41.19
2018-12-17T11:23:20.430Z,41.69
2018-12-17T11:24:20.418Z,41.49
2018-12-17T11:25:20.429Z,41.61
2018-12-17T11:26:20.414Z,41.41
2018-12-17T11:27:20.385Z,41.60
2018-12-17T11:28:20.376Z,41.60
2018-12-17T11:29:20.364Z,41.30
2018-12-17T11:30:20.367Z,41.80
2018-12-17T11:31:20.349Z,41.69
2018-12-17T11:32:20.356Z,41.69
2018-12-17T11:33:20.321Z,41.49
2018-12-17T11:34:20.312Z,41.39
2018-12-17T11:35:20.323Z,41.39
2018-12-17T11:36:20.297Z,41.60
2018-12-17T11:37:20.287Z,41.69
2018-12-17T11:38:20.293Z,41.69
2018-12-17T11:39:20.259Z,41.80
2018-12-17T11:40:20.470Z,41.71
2018-12-17T11:41:20.243Z,41.71
2018-12-17T11:42:20.225Z,41.89
2018-12-17T11:43:20.221Z,41.39
2018-12-17T11:44:20.237Z,41.39
2018-12-17T11:45:20.200Z,41.49
2018-12-17T11:46:20.206Z,41.61
2018-12-17T11:47:20.172Z,41.52
2018-12-17T11:48:20.177Z,41.52
2018-12-17T11:49:20.162Z,41.21
2018-12-17T11:50:20.165Z,41.02
2018-12-17T11:51:20.145Z,41.11
2018-12-17T11:52:20.120Z,41.61
2018-12-17T11:53:20.109Z,40.91
2018-12-17T11:54:20.101Z,41.11
2018-12-17T11:55:20.095Z,41.21
2018-12-17T11:56:20.115Z,41.11
2018-12-17T11:57:20.072Z,40.81
2018-12-17T11:58:20.062Z,41.31
2018-12-17T11:59:20.053Z,41.61
2018-12-17T12:00:20.043Z,41.11
2018-12-17T12:01:20.041Z,41.21
2018-12-17T12:02:20.031Z,41.11
2018-12-17T12:03:20.010Z,41.11
2018-12-17T12:04:19.997Z,41.21
2018-12-17T12:05:19.981Z,41.11
2018-12-17T12:06:20.008Z,41.31
2018-12-17T12:07:19.973Z,41.24
2018-12-17T12:08:19.970Z,41.61
2018-12-17T12:09:19.940Z,41.21
2018-12-17T12:10:19.935Z,40.91
2018-12-17T12:11:19.917Z,41.21
2018-12-17T12:12:19.930Z,41.02
2018-12-17T12:13:19.902Z,40.91
2018-12-17T12:14:19.891Z,41.11
2018-12-17T12:15:19.875Z,41.02
2018-12-17T12:16:19.862Z,40.91
2018-12-17T12:17:19.868Z,41.41
2018-12-17T12:18:19.845Z,41.02
2018-12-17T12:19:19.832Z,41.11
2018-12-17T12:20:19.824Z,41.11
2018-12-17T12:21:19.814Z,41.11
2018-12-17T12:22:19.812Z,41.11
2018-12-17T12:23:19.794Z,41.11
2018-12-17T12:24:19.782Z,41.02
2018-12-17T12:25:19.766Z,41.71
2018-12-17T12:26:19.764Z,41.02
2018-12-17T12:27:19.759Z,40.41
2018-12-17T12:28:19.734Z,40.71
2018-12-17T12:29:19.732Z,40.41
2018-12-17T12:30:19.712Z,40.81
2018-12-17T12:31:19.703Z,40.71
2018-12-17T12:32:19.725Z,40.52
2018-12-17T12:33:19.684Z,40.41
2018-12-17T12:34:19.669Z,40.52
2018-12-17T12:35:19.659Z,40.11
2018-12-17T12:36:19.648Z,40.41
2018-12-17T12:37:19.653Z,40.41
2018-12-17T12:38:19.633Z,40.61
2018-12-17T12:39:19.619Z,40.61
2018-12-17T12:40:19.611Z,40.52
2018-12-17T12:41:19.595Z,40.22
2018-12-17T12:42:19.656Z,40.52
2018-12-17T12:43:19.572Z,40.41
2018-12-17T12:44:19.570Z,40.61
2018-12-17T12:45:19.552Z,40.81
2018-12-17T12:46:19.546Z,40.71
2018-12-17T12:47:19.536Z,40.91
2018-12-17T12:48:19.535Z,40.81
2018-12-17T12:49:19.509Z,40.81
2018-12-17T12:50:19.503Z,41.11
2018-12-17T12:51:19.487Z,41.11
2018-12-17T12:52:19.476Z,40.91